sensor_id;sensor_type;location;lat;lon;timestamp;P1;durP1;ratioP1;P2;durP2;ratioP2
56860;SDS011;42744;51.094;3.490;2022-12-07T00:01:16;8.77;;;5.20;;
56860;SDS011;42744;51.094;3.490;2022-12-07T00:03:45;9.37;;;4.67;;
56860;SDS011;42744;51.094;3.490;2022-12-07T00:06:13;9.93;;;4.40;;
56860;SDS011;42744;51.094;3.490;2022-12-07T00:08:40;6.83;;;4.33;;
56860;SDS011;42744;51.094;3.490;2022-12-07T00:13:36;7.57;;;3.90;;
56860;SDS011;42744;51.094;3.490;2022-12-07T00:16:04;9.93;;;4.20;;
56860;SDS011;42744;51.094;3.490;2022-12-07T00:18:32;5.07;;;3.90;;
56860;SDS011;42744;51.094;3.490;2022-12-07T00:21:02;6.87;;;3.90;;
56860;SDS011;42744;51.094;3.490;2022-12-07T00:23:34;4.77;;;3.43;;
56860;SDS011;42744;51.094;3.490;2022-12-07T00:26:04;7.57;;;4.13;;
56860;SDS011;42744;51.094;3.490;2022-12-07T00:28:35;7.87;;;4.83;;
56860;SDS011;42744;51.094;3.490;2022-12-07T00:31:02;7.70;;;4.60;;
56860;SDS011;42744;51.094;3.490;2022-12-07T00:33:33;10.43;;;4.83;;
56860;SDS011;42744;51.094;3.490;2022-12-07T00:36:00;5.93;;;4.17;;
56860;SDS011;42744;51.094;3.490;2022-12-07T00:38:28;8.00;;;4.50;;
56860;SDS011;42744;51.094;3.490;2022-12-07T00:40:59;5.73;;;4.03;;
56860;SDS011;42744;51.094;3.490;2022-12-07T00:43:27;7.50;;;4.30;;
56860;SDS011;42744;51.094;3.490;2022-12-07T00:45:53;9.17;;;3.83;;
56860;SDS011;42744;51.094;3.490;2022-12-07T00:48:20;7.73;;;3.93;;
56860;SDS011;42744;51.094;3.490;2022-12-07T00:50:47;5.67;;;3.47;;
56860;SDS011;42744;51.094;3.490;2022-12-07T00:53:13;6.57;;;3.53;;
56860;SDS011;42744;51.094;3.490;2022-12-07T00:55:39;7.33;;;3.47;;
56860;SDS011;42744;51.094;3.490;2022-12-07T00:58:05;7.47;;;3.83;;
56860;SDS011;42744;51.094;3.490;2022-12-07T01:00:32;5.17;;;3.73;;
56860;SDS011;42744;51.094;3.490;2022-12-07T01:02:58;7.57;;;3.97;;
56860;SDS011;42744;51.094;3.490;2022-12-07T01:05:25;8.80;;;4.60;;
56860;SDS011;42744;51.094;3.490;2022-12-07T01:07:51;9.30;;;4.57;;
56860;SDS011;42744;51.094;3.490;2022-12-07T01:10:17;7.77;;;4.20;;
56860;SDS011;42744;51.094;3.490;2022-12-07T01:12:44;11.20;;;4.30;;
56860;SDS011;42744;51.094;3.490;2022-12-07T01:15:10;10.60;;;3.80;;
56860;SDS011;42744;51.094;3.490;2022-12-07T01:17:36;7.77;;;3.83;;
56860;SDS011;42744;51.094;3.490;2022-12-07T01:20:02;6.03;;;3.10;;
56860;SDS011;42744;51.094;3.490;2022-12-07T01:22:28;7.27;;;3.13;;
56860;SDS011;42744;51.094;3.490;2022-12-07T01:24:54;7.33;;;2.70;;
56860;SDS011;42744;51.094;3.490;2022-12-07T01:27:20;9.20;;;3.10;;
56860;SDS011;42744;51.094;3.490;2022-12-07T01:29:46;7.20;;;3.23;;
56860;SDS011;42744;51.094;3.490;2022-12-07T01:32:12;5.57;;;2.67;;
56860;SDS011;42744;51.094;3.490;2022-12-07T01:34:38;8.63;;;2.57;;
56860;SDS011;42744;51.094;3.490;2022-12-07T01:37:04;7.13;;;2.70;;
56860;SDS011;42744;51.094;3.490;2022-12-07T01:39:30;7.10;;;2.63;;
56860;SDS011;42744;51.094;3.490;2022-12-07T01:41:56;6.23;;;2.40;;
56860;SDS011;42744;51.094;3.490;2022-12-07T01:46:49;7.90;;;2.60;;
56860;SDS011;42744;51.094;3.490;2022-12-07T01:49:25;4.90;;;2.67;;
56860;SDS011;42744;51.094;3.490;2022-12-07T01:51:52;3.87;;;1.97;;
56860;SDS011;42744;51.094;3.490;2022-12-07T01:54:22;3.33;;;2.10;;
56860;SDS011;42744;51.094;3.490;2022-12-07T01:56:50;4.63;;;2.10;;
56860;SDS011;42744;51.094;3.490;2022-12-07T01:59:18;3.83;;;1.73;;
56860;SDS011;42744;51.094;3.490;2022-12-07T02:01:49;4.30;;;1.90;;
56860;SDS011;42744;51.094;3.490;2022-12-07T02:04:16;3.77;;;1.80;;
56860;SDS011;42744;51.094;3.490;2022-12-07T02:06:43;5.83;;;1.90;;
56860;SDS011;42744;51.094;3.490;2022-12-07T02:09:11;4.83;;;2.03;;
56860;SDS011;42744;51.094;3.490;2022-12-07T02:11:37;5.57;;;1.80;;
56860;SDS011;42744;51.094;3.490;2022-12-07T02:14:04;2.67;;;1.90;;
56860;SDS011;42744;51.094;3.490;2022-12-07T02:22:11;3.33;;;1.50;;
56860;SDS011;42744;51.094;3.490;2022-12-07T02:30:35;4.13;;;1.80;;
56860;SDS011;42744;51.094;3.490;2022-12-07T02:33:17;2.90;;;1.57;;
56860;SDS011;42744;51.094;3.490;2022-12-07T02:36:25;7.43;;;2.13;;
56860;SDS011;42744;51.094;3.490;2022-12-07T02:39:00;3.43;;;1.50;;
56860;SDS011;42744;51.094;3.490;2022-12-07T02:41:36;3.83;;;1.40;;
56860;SDS011;42744;51.094;3.490;2022-12-07T02:44:12;1.93;;;1.33;;
56860;SDS011;42744;51.094;3.490;2022-12-07T02:46:42;6.13;;;1.70;;
56860;SDS011;42744;51.094;3.490;2022-12-07T02:49:14;7.87;;;1.47;;
56860;SDS011;42744;51.094;3.490;2022-12-07T02:51:42;4.00;;;1.40;;
56860;SDS011;42744;51.094;3.490;2022-12-07T02:54:14;4.10;;;1.20;;
56860;SDS011;42744;51.094;3.490;2022-12-07T02:59:17;6.10;;;1.30;;
56860;SDS011;42744;51.094;3.490;2022-12-07T03:07:00;3.90;;;1.50;;
56860;SDS011;42744;51.094;3.490;2022-12-07T03:09:44;4.57;;;1.60;;
56860;SDS011;42744;51.094;3.490;2022-12-07T03:12:22;6.97;;;1.77;;
56860;SDS011;42744;51.094;3.490;2022-12-07T03:15:18;6.60;;;1.70;;
56860;SDS011;42744;51.094;3.490;2022-12-07T03:17:47;3.73;;;1.50;;
56860;SDS011;42744;51.094;3.490;2022-12-07T03:20:16;5.57;;;1.73;;
56860;SDS011;42744;51.094;3.490;2022-12-07T03:22:47;7.53;;;1.50;;
56860;SDS011;42744;51.094;3.490;2022-12-07T03:25:13;6.63;;;1.50;;
56860;SDS011;42744;51.094;3.490;2022-12-07T03:30:19;7.10;;;1.37;;
56860;SDS011;42744;51.094;3.490;2022-12-07T03:33:20;4.63;;;1.73;;
56860;SDS011;42744;51.094;3.490;2022-12-07T03:35:45;6.30;;;1.83;;
56860;SDS011;42744;51.094;3.490;2022-12-07T03:39:20;5.77;;;1.60;;
56860;SDS011;42744;51.094;3.490;2022-12-07T03:41:17;5.37;;;2.10;;
56860;SDS011;42744;51.094;3.490;2022-12-07T03:43:50;6.13;;;2.10;;
56860;SDS011;42744;51.094;3.490;2022-12-07T03:46:19;4.40;;;1.80;;
56860;SDS011;42744;51.094;3.490;2022-12-07T03:51:57;6.17;;;2.30;;
56860;SDS011;42744;51.094;3.490;2022-12-07T03:54:28;5.47;;;2.30;;
56860;SDS011;42744;51.094;3.490;2022-12-07T03:56:58;5.10;;;1.70;;
56860;SDS011;42744;51.094;3.490;2022-12-07T03:59:27;11.27;;;2.00;;
56860;SDS011;42744;51.094;3.490;2022-12-07T04:01:56;6.73;;;2.00;;
56860;SDS011;42744;51.094;3.490;2022-12-07T04:04:27;4.47;;;2.40;;
56860;SDS011;42744;51.094;3.490;2022-12-07T04:06:53;5.07;;;2.13;;
56860;SDS011;42744;51.094;3.490;2022-12-07T04:09:19;7.50;;;2.20;;
56860;SDS011;42744;51.094;3.490;2022-12-07T04:11:46;3.67;;;1.63;;
56860;SDS011;42744;51.094;3.490;2022-12-07T04:14:12;2.97;;;1.70;;
56860;SDS011;42744;51.094;3.490;2022-12-07T04:16:44;4.60;;;1.63;;
56860;SDS011;42744;51.094;3.490;2022-12-07T04:19:16;5.97;;;1.83;;
56860;SDS011;42744;51.094;3.490;2022-12-07T04:21:43;4.13;;;2.00;;
56860;SDS011;42744;51.094;3.490;2022-12-07T04:24:09;3.87;;;1.90;;
56860;SDS011;42744;51.094;3.490;2022-12-07T04:26:36;8.63;;;2.00;;
56860;SDS011;42744;51.094;3.490;2022-12-07T04:29:02;5.43;;;2.17;;
56860;SDS011;42744;51.094;3.490;2022-12-07T04:31:28;6.63;;;2.63;;
56860;SDS011;42744;51.094;3.490;2022-12-07T04:33:54;9.87;;;2.97;;
56860;SDS011;42744;51.094;3.490;2022-12-07T04:36:20;6.93;;;3.20;;
56860;SDS011;42744;51.094;3.490;2022-12-07T04:38:46;9.57;;;3.77;;
56860;SDS011;42744;51.094;3.490;2022-12-07T04:41:13;5.57;;;2.83;;
56860;SDS011;42744;51.094;3.490;2022-12-07T04:43:39;9.60;;;2.57;;
56860;SDS011;42744;51.094;3.490;2022-12-07T04:46:04;5.70;;;2.10;;
56860;SDS011;42744;51.094;3.490;2022-12-07T04:48:31;5.10;;;1.80;;
56860;SDS011;42744;51.094;3.490;2022-12-07T04:50:57;5.40;;;2.00;;
56860;SDS011;42744;51.094;3.490;2022-12-07T04:53:23;5.33;;;2.23;;
56860;SDS011;42744;51.094;3.490;2022-12-07T04:55:49;5.80;;;1.80;;
56860;SDS011;42744;51.094;3.490;2022-12-07T04:58:15;6.53;;;2.47;;
56860;SDS011;42744;51.094;3.490;2022-12-07T05:00:40;9.57;;;2.70;;
56860;SDS011;42744;51.094;3.490;2022-12-07T05:03:07;7.23;;;1.90;;
56860;SDS011;42744;51.094;3.490;2022-12-07T05:05:32;6.43;;;1.80;;
56860;SDS011;42744;51.094;3.490;2022-12-07T05:07:58;6.33;;;2.30;;
56860;SDS011;42744;51.094;3.490;2022-12-07T05:10:24;3.20;;;1.93;;
56860;SDS011;42744;51.094;3.490;2022-12-07T05:12:50;3.93;;;1.93;;
56860;SDS011;42744;51.094;3.490;2022-12-07T05:15:16;5.13;;;2.03;;
56860;SDS011;42744;51.094;3.490;2022-12-07T05:17:43;3.80;;;1.70;;
56860;SDS011;42744;51.094;3.490;2022-12-07T05:20:09;5.37;;;1.83;;
56860;SDS011;42744;51.094;3.490;2022-12-07T05:22:35;5.87;;;1.80;;
56860;SDS011;42744;51.094;3.490;2022-12-07T05:25:02;5.03;;;1.70;;
56860;SDS011;42744;51.094;3.490;2022-12-07T05:27:28;4.70;;;1.73;;
56860;SDS011;42744;51.094;3.490;2022-12-07T05:29:53;7.80;;;2.10;;
56860;SDS011;42744;51.094;3.490;2022-12-07T05:32:20;4.40;;;2.10;;
56860;SDS011;42744;51.094;3.490;2022-12-07T05:34:45;4.30;;;1.87;;
56860;SDS011;42744;51.094;3.490;2022-12-07T05:37:12;7.77;;;2.17;;
56860;SDS011;42744;51.094;3.490;2022-12-07T05:39:38;7.57;;;2.27;;
56860;SDS011;42744;51.094;3.490;2022-12-07T05:42:06;9.20;;;2.17;;
56860;SDS011;42744;51.094;3.490;2022-12-07T05:44:45;4.43;;;2.77;;
56860;SDS011;42744;51.094;3.490;2022-12-07T05:47:12;5.27;;;2.07;;
56860;SDS011;42744;51.094;3.490;2022-12-07T05:49:39;6.33;;;2.13;;
56860;SDS011;42744;51.094;3.490;2022-12-07T05:52:05;4.30;;;1.80;;
56860;SDS011;42744;51.094;3.490;2022-12-07T05:54:32;6.83;;;2.10;;
56860;SDS011;42744;51.094;3.490;2022-12-07T05:57:01;6.33;;;1.73;;
56860;SDS011;42744;51.094;3.490;2022-12-07T05:59:27;6.03;;;2.47;;
56860;SDS011;42744;51.094;3.490;2022-12-07T06:01:56;7.13;;;1.77;;
56860;SDS011;42744;51.094;3.490;2022-12-07T06:04:25;8.70;;;2.00;;
56860;SDS011;42744;51.094;3.490;2022-12-07T06:06:54;5.47;;;1.90;;
56860;SDS011;42744;51.094;3.490;2022-12-07T06:09:21;7.27;;;1.77;;
56860;SDS011;42744;51.094;3.490;2022-12-07T06:11:48;3.57;;;1.67;;
56860;SDS011;42744;51.094;3.490;2022-12-07T06:14:33;5.27;;;1.90;;
56860;SDS011;42744;51.094;3.490;2022-12-07T06:16:59;3.60;;;1.70;;
56860;SDS011;42744;51.094;3.490;2022-12-07T06:19:25;7.47;;;2.67;;
56860;SDS011;42744;51.094;3.490;2022-12-07T06:21:51;7.00;;;2.27;;
56860;SDS011;42744;51.094;3.490;2022-12-07T06:24:17;9.27;;;2.83;;
56860;SDS011;42744;51.094;3.490;2022-12-07T06:26:44;8.60;;;3.30;;
56860;SDS011;42744;51.094;3.490;2022-12-07T06:29:10;8.50;;;2.83;;
56860;SDS011;42744;51.094;3.490;2022-12-07T06:31:37;6.37;;;2.40;;
56860;SDS011;42744;51.094;3.490;2022-12-07T06:34:04;6.67;;;2.20;;
56860;SDS011;42744;51.094;3.490;2022-12-07T06:36:32;6.50;;;2.60;;
56860;SDS011;42744;51.094;3.490;2022-12-07T06:38:58;6.90;;;2.57;;
56860;SDS011;42744;51.094;3.490;2022-12-07T06:41:24;4.00;;;2.40;;
56860;SDS011;42744;51.094;3.490;2022-12-07T06:43:51;8.70;;;2.80;;
56860;SDS011;42744;51.094;3.490;2022-12-07T06:46:17;10.07;;;3.17;;
56860;SDS011;42744;51.094;3.490;2022-12-07T06:48:43;5.10;;;2.77;;
56860;SDS011;42744;51.094;3.490;2022-12-07T06:51:09;7.43;;;3.20;;
56860;SDS011;42744;51.094;3.490;2022-12-07T06:53:36;12.03;;;3.10;;
56860;SDS011;42744;51.094;3.490;2022-12-07T06:56:03;12.77;;;3.40;;
56860;SDS011;42744;51.094;3.490;2022-12-07T06:58:30;12.50;;;6.17;;
56860;SDS011;42744;51.094;3.490;2022-12-07T07:00:56;16.60;;;6.73;;
56860;SDS011;42744;51.094;3.490;2022-12-07T07:03:22;19.40;;;8.13;;
56860;SDS011;42744;51.094;3.490;2022-12-07T07:05:48;14.73;;;6.80;;
56860;SDS011;42744;51.094;3.490;2022-12-07T07:08:14;11.30;;;5.67;;
56860;SDS011;42744;51.094;3.490;2022-12-07T07:10:40;10.90;;;5.40;;
56860;SDS011;42744;51.094;3.490;2022-12-07T07:13:07;17.73;;;5.83;;
56860;SDS011;42744;51.094;3.490;2022-12-07T07:15:33;9.53;;;4.90;;
56860;SDS011;42744;51.094;3.490;2022-12-07T07:17:59;11.70;;;4.87;;
56860;SDS011;42744;51.094;3.490;2022-12-07T07:20:26;10.53;;;4.50;;
56860;SDS011;42744;51.094;3.490;2022-12-07T07:22:55;10.13;;;4.43;;
56860;SDS011;42744;51.094;3.490;2022-12-07T07:25:21;9.63;;;3.83;;
56860;SDS011;42744;51.094;3.490;2022-12-07T07:27:47;12.57;;;3.87;;
56860;SDS011;42744;51.094;3.490;2022-12-07T07:30:13;10.70;;;3.30;;
56860;SDS011;42744;51.094;3.490;2022-12-07T07:32:39;8.00;;;3.97;;
56860;SDS011;42744;51.094;3.490;2022-12-07T07:35:05;9.10;;;4.27;;
56860;SDS011;42744;51.094;3.490;2022-12-07T07:37:31;8.27;;;3.80;;
56860;SDS011;42744;51.094;3.490;2022-12-07T07:39:57;9.93;;;3.77;;
56860;SDS011;42744;51.094;3.490;2022-12-07T07:42:23;10.27;;;4.47;;
56860;SDS011;42744;51.094;3.490;2022-12-07T07:44:49;13.40;;;5.00;;
56860;SDS011;42744;51.094;3.490;2022-12-07T07:47:15;13.97;;;5.90;;
56860;SDS011;42744;51.094;3.490;2022-12-07T07:49:41;13.53;;;6.40;;
56860;SDS011;42744;51.094;3.490;2022-12-07T07:52:07;11.27;;;4.90;;
56860;SDS011;42744;51.094;3.490;2022-12-07T07:54:33;11.43;;;4.33;;
56860;SDS011;42744;51.094;3.490;2022-12-07T07:56:59;10.37;;;4.80;;
56860;SDS011;42744;51.094;3.490;2022-12-07T07:59:25;15.20;;;6.00;;
56860;SDS011;42744;51.094;3.490;2022-12-07T08:01:51;15.93;;;6.20;;
56860;SDS011;42744;51.094;3.490;2022-12-07T08:04:17;10.23;;;5.10;;
56860;SDS011;42744;51.094;3.490;2022-12-07T08:06:43;11.13;;;5.23;;
56860;SDS011;42744;51.094;3.490;2022-12-07T08:09:09;12.60;;;5.40;;
56860;SDS011;42744;51.094;3.490;2022-12-07T08:11:35;9.97;;;4.93;;
56860;SDS011;42744;51.094;3.490;2022-12-07T08:14:02;12.17;;;4.57;;
56860;SDS011;42744;51.094;3.490;2022-12-07T08:16:28;9.20;;;4.73;;
56860;SDS011;42744;51.094;3.490;2022-12-07T08:18:54;10.00;;;4.30;;
56860;SDS011;42744;51.094;3.490;2022-12-07T08:21:21;11.23;;;5.00;;
56860;SDS011;42744;51.094;3.490;2022-12-07T08:23:47;9.97;;;4.47;;
56860;SDS011;42744;51.094;3.490;2022-12-07T08:26:14;11.07;;;4.47;;
56860;SDS011;42744;51.094;3.490;2022-12-07T08:28:41;10.47;;;5.00;;
56860;SDS011;42744;51.094;3.490;2022-12-07T08:31:10;8.73;;;5.50;;
56860;SDS011;42744;51.094;3.490;2022-12-07T08:33:41;9.90;;;4.63;;
56860;SDS011;42744;51.094;3.490;2022-12-07T08:36:08;11.23;;;5.00;;
56860;SDS011;42744;51.094;3.490;2022-12-07T08:38:35;11.80;;;5.53;;
56860;SDS011;42744;51.094;3.490;2022-12-07T08:41:02;10.20;;;5.07;;
56860;SDS011;42744;51.094;3.490;2022-12-07T08:43:28;13.53;;;5.30;;
56860;SDS011;42744;51.094;3.490;2022-12-07T08:46:17;13.63;;;5.80;;
56860;SDS011;42744;51.094;3.490;2022-12-07T08:48:52;14.50;;;7.33;;
56860;SDS011;42744;51.094;3.490;2022-12-07T08:51:21;12.83;;;6.67;;
56860;SDS011;42744;51.094;3.490;2022-12-07T08:53:48;12.77;;;6.23;;
56860;SDS011;42744;51.094;3.490;2022-12-07T08:56:16;13.27;;;6.57;;
56860;SDS011;42744;51.094;3.490;2022-12-07T08:58:42;11.47;;;6.33;;
56860;SDS011;42744;51.094;3.490;2022-12-07T09:01:09;10.80;;;5.90;;
56860;SDS011;42744;51.094;3.490;2022-12-07T09:03:34;15.60;;;6.13;;
56860;SDS011;42744;51.094;3.490;2022-12-07T09:06:00;11.43;;;6.17;;
56860;SDS011;42744;51.094;3.490;2022-12-07T09:08:32;13.63;;;5.47;;
56860;SDS011;42744;51.094;3.490;2022-12-07T09:11:01;12.83;;;6.00;;
56860;SDS011;42744;51.094;3.490;2022-12-07T09:13:27;9.03;;;4.70;;
56860;SDS011;42744;51.094;3.490;2022-12-07T09:15:53;15.50;;;7.13;;
56860;SDS011;42744;51.094;3.490;2022-12-07T09:18:19;15.53;;;6.83;;
56860;SDS011;42744;51.094;3.490;2022-12-07T09:20:45;14.37;;;6.60;;
56860;SDS011;42744;51.094;3.490;2022-12-07T09:23:11;16.90;;;6.30;;
56860;SDS011;42744;51.094;3.490;2022-12-07T09:25:37;10.93;;;5.70;;
56860;SDS011;42744;51.094;3.490;2022-12-07T09:28:03;12.03;;;5.57;;
56860;SDS011;42744;51.094;3.490;2022-12-07T09:30:29;10.63;;;5.30;;
56860;SDS011;42744;51.094;3.490;2022-12-07T09:32:56;9.70;;;5.47;;
56860;SDS011;42744;51.094;3.490;2022-12-07T09:35:23;11.80;;;4.80;;
56860;SDS011;42744;51.094;3.490;2022-12-07T09:37:49;11.57;;;5.37;;
56860;SDS011;42744;51.094;3.490;2022-12-07T09:40:16;9.97;;;4.50;;
56860;SDS011;42744;51.094;3.490;2022-12-07T09:42:45;13.57;;;5.50;;
56860;SDS011;42744;51.094;3.490;2022-12-07T09:45:16;6.90;;;4.40;;
56860;SDS011;42744;51.094;3.490;2022-12-07T09:48:04;11.10;;;5.20;;
56860;SDS011;42744;51.094;3.490;2022-12-07T09:50:38;13.43;;;4.67;;
56860;SDS011;42744;51.094;3.490;2022-12-07T09:53:08;9.37;;;4.70;;
56860;SDS011;42744;51.094;3.490;2022-12-07T09:55:54;12.33;;;4.50;;
56860;SDS011;42744;51.094;3.490;2022-12-07T09:58:25;12.00;;;5.00;;
56860;SDS011;42744;51.094;3.490;2022-12-07T10:00:53;12.43;;;5.13;;
56860;SDS011;42744;51.094;3.490;2022-12-07T10:03:22;12.60;;;5.47;;
56860;SDS011;42744;51.094;3.490;2022-12-07T10:05:49;15.93;;;5.27;;
56860;SDS011;42744;51.094;3.490;2022-12-07T10:08:17;6.67;;;4.27;;
56860;SDS011;42744;51.094;3.490;2022-12-07T10:10:44;7.87;;;4.10;;
56860;SDS011;42744;51.094;3.490;2022-12-07T10:13:12;9.40;;;4.73;;
56860;SDS011;42744;51.094;3.490;2022-12-07T10:18:19;9.73;;;5.37;;
56860;SDS011;42744;51.094;3.490;2022-12-07T10:20:46;9.40;;;5.53;;
56860;SDS011;42744;51.094;3.490;2022-12-07T10:23:16;14.57;;;6.27;;
56860;SDS011;42744;51.094;3.490;2022-12-07T10:25:43;15.90;;;7.50;;
56860;SDS011;42744;51.094;3.490;2022-12-07T10:28:11;12.03;;;7.20;;
56860;SDS011;42744;51.094;3.490;2022-12-07T10:33:31;9.67;;;5.07;;
56860;SDS011;42744;51.094;3.490;2022-12-07T10:36:16;8.33;;;4.83;;
56860;SDS011;42744;51.094;3.490;2022-12-07T10:41:35;9.60;;;5.00;;
56860;SDS011;42744;51.094;3.490;2022-12-07T10:44:22;11.23;;;5.13;;
56860;SDS011;42744;51.094;3.490;2022-12-07T10:54:55;8.43;;;2.77;;
56860;SDS011;42744;51.094;3.490;2022-12-07T11:00:24;7.13;;;3.20;;
56860;SDS011;42744;51.094;3.490;2022-12-07T11:08:44;6.30;;;2.60;;
56860;SDS011;42744;51.094;3.490;2022-12-07T11:11:38;7.20;;;2.20;;
56860;SDS011;42744;51.094;3.490;2022-12-07T11:19:58;4.87;;;1.90;;
56860;SDS011;42744;51.094;3.490;2022-12-07T11:25:58;2.80;;;1.53;;
56860;SDS011;42744;51.094;3.490;2022-12-07T11:36:54;2.20;;;0.80;;
56860;SDS011;42744;51.094;3.490;2022-12-07T11:42:03;4.90;;;1.27;;
56860;SDS011;42744;51.094;3.490;2022-12-07T11:47:45;7.93;;;3.00;;
56860;SDS011;42744;51.094;3.490;2022-12-07T11:50:21;8.93;;;3.10;;
56860;SDS011;42744;51.094;3.490;2022-12-07T12:00:51;7.23;;;2.80;;
56860;SDS011;42744;51.094;3.490;2022-12-07T12:03:29;6.40;;;2.50;;
56860;SDS011;42744;51.094;3.490;2022-12-07T12:05:58;6.57;;;2.33;;
56860;SDS011;42744;51.094;3.490;2022-12-07T12:08:29;6.03;;;2.07;;
56860;SDS011;42744;51.094;3.490;2022-12-07T12:14:28;6.67;;;2.17;;
56860;SDS011;42744;51.094;3.490;2022-12-07T12:16:55;8.90;;;2.10;;
56860;SDS011;42744;51.094;3.490;2022-12-07T12:22:18;4.33;;;1.83;;
56860;SDS011;42744;51.094;3.490;2022-12-07T12:24:48;7.60;;;2.53;;
56860;SDS011;42744;51.094;3.490;2022-12-07T12:27:27;5.90;;;2.00;;
56860;SDS011;42744;51.094;3.490;2022-12-07T12:29:58;3.87;;;1.60;;
56860;SDS011;42744;51.094;3.490;2022-12-07T12:37:54;7.50;;;1.80;;
56860;SDS011;42744;51.094;3.490;2022-12-07T12:40:41;7.07;;;2.13;;
56860;SDS011;42744;51.094;3.490;2022-12-07T12:43:39;6.97;;;2.10;;
56860;SDS011;42744;51.094;3.490;2022-12-07T12:51:41;7.00;;;2.63;;
56860;SDS011;42744;51.094;3.490;2022-12-07T12:59:33;6.10;;;1.70;;
56860;SDS011;42744;51.094;3.490;2022-12-07T13:02:25;4.30;;;1.57;;
56860;SDS011;42744;51.094;3.490;2022-12-07T13:28:39;4.63;;;1.30;;
56860;SDS011;42744;51.094;3.490;2022-12-07T13:33:58;4.40;;;2.27;;
56860;SDS011;42744;51.094;3.490;2022-12-07T13:36:25;9.43;;;1.90;;
56860;SDS011;42744;51.094;3.490;2022-12-07T13:38:55;4.13;;;0.80;;
56860;SDS011;42744;51.094;3.490;2022-12-07T13:41:24;5.00;;;1.00;;
56860;SDS011;42744;51.094;3.490;2022-12-07T13:43:53;5.13;;;1.40;;
56860;SDS011;42744;51.094;3.490;2022-12-07T13:46:48;3.70;;;0.90;;
56860;SDS011;42744;51.094;3.490;2022-12-07T13:49:25;4.43;;;1.20;;
56860;SDS011;42744;51.094;3.490;2022-12-07T13:51:54;6.03;;;1.57;;
56860;SDS011;42744;51.094;3.490;2022-12-07T13:54:21;4.10;;;0.93;;
56860;SDS011;42744;51.094;3.490;2022-12-07T13:56:48;4.37;;;0.90;;
56860;SDS011;42744;51.094;3.490;2022-12-07T13:59:18;2.20;;;0.80;;
56860;SDS011;42744;51.094;3.490;2022-12-07T14:01:50;5.80;;;0.90;;
56860;SDS011;42744;51.094;3.490;2022-12-07T14:04:28;3.13;;;0.83;;
56860;SDS011;42744;51.094;3.490;2022-12-07T14:07:00;6.67;;;1.17;;
56860;SDS011;42744;51.094;3.490;2022-12-07T14:09:27;6.80;;;1.43;;
56860;SDS011;42744;51.094;3.490;2022-12-07T14:11:56;4.47;;;1.00;;
56860;SDS011;42744;51.094;3.490;2022-12-07T14:14:27;5.07;;;1.53;;
56860;SDS011;42744;51.094;3.490;2022-12-07T14:17:38;5.63;;;1.37;;
56860;SDS011;42744;51.094;3.490;2022-12-07T14:22:25;4.10;;;2.03;;
56860;SDS011;42744;51.094;3.490;2022-12-07T14:24:59;7.03;;;1.60;;
56860;SDS011;42744;51.094;3.490;2022-12-07T14:27:29;4.73;;;1.60;;
56860;SDS011;42744;51.094;3.490;2022-12-07T14:29:59;5.43;;;1.50;;
56860;SDS011;42744;51.094;3.490;2022-12-07T14:32:27;2.67;;;1.33;;
56860;SDS011;42744;51.094;3.490;2022-12-07T14:37:23;5.70;;;1.73;;
56860;SDS011;42744;51.094;3.490;2022-12-07T14:39:51;5.90;;;1.33;;
56860;SDS011;42744;51.094;3.490;2022-12-07T14:42:17;8.83;;;2.10;;
56860;SDS011;42744;51.094;3.490;2022-12-07T14:44:43;3.77;;;1.70;;
56860;SDS011;42744;51.094;3.490;2022-12-07T14:47:10;7.43;;;2.10;;
56860;SDS011;42744;51.094;3.490;2022-12-07T14:49:36;4.60;;;1.57;;
56860;SDS011;42744;51.094;3.490;2022-12-07T14:52:02;7.50;;;2.60;;
56860;SDS011;42744;51.094;3.490;2022-12-07T14:54:31;4.63;;;2.13;;
56860;SDS011;42744;51.094;3.490;2022-12-07T14:56:57;7.67;;;2.13;;
56860;SDS011;42744;51.094;3.490;2022-12-07T14:59:23;7.63;;;2.67;;
56860;SDS011;42744;51.094;3.490;2022-12-07T15:01:49;7.60;;;2.60;;
56860;SDS011;42744;51.094;3.490;2022-12-07T15:04:16;6.37;;;3.27;;
56860;SDS011;42744;51.094;3.490;2022-12-07T15:06:41;5.70;;;2.73;;
56860;SDS011;42744;51.094;3.490;2022-12-07T15:09:19;5.90;;;2.90;;
56860;SDS011;42744;51.094;3.490;2022-12-07T15:11:45;6.97;;;1.97;;
56860;SDS011;42744;51.094;3.490;2022-12-07T15:14:11;5.80;;;2.27;;
56860;SDS011;42744;51.094;3.490;2022-12-07T15:16:39;3.67;;;1.70;;
56860;SDS011;42744;51.094;3.490;2022-12-07T15:19:10;5.13;;;1.47;;
56860;SDS011;42744;51.094;3.490;2022-12-07T15:21:39;4.73;;;1.87;;
56860;SDS011;42744;51.094;3.490;2022-12-07T15:24:06;6.77;;;2.30;;
56860;SDS011;42744;51.094;3.490;2022-12-07T15:26:33;6.77;;;2.27;;
56860;SDS011;42744;51.094;3.490;2022-12-07T15:28:59;5.83;;;2.73;;
56860;SDS011;42744;51.094;3.490;2022-12-07T15:31:25;4.97;;;2.30;;
56860;SDS011;42744;51.094;3.490;2022-12-07T15:33:51;5.40;;;2.37;;
56860;SDS011;42744;51.094;3.490;2022-12-07T15:36:21;6.00;;;2.47;;
56860;SDS011;42744;51.094;3.490;2022-12-07T15:38:48;5.87;;;2.47;;
56860;SDS011;42744;51.094;3.490;2022-12-07T15:41:15;5.83;;;2.10;;
56860;SDS011;42744;51.094;3.490;2022-12-07T15:43:41;7.50;;;2.60;;
56860;SDS011;42744;51.094;3.490;2022-12-07T15:46:30;4.43;;;2.47;;
56860;SDS011;42744;51.094;3.490;2022-12-07T15:48:57;4.33;;;2.07;;
56860;SDS011;42744;51.094;3.490;2022-12-07T15:51:23;5.87;;;2.87;;
56860;SDS011;42744;51.094;3.490;2022-12-07T15:53:49;4.90;;;2.43;;
56860;SDS011;42744;51.094;3.490;2022-12-07T15:56:15;5.47;;;3.13;;
56860;SDS011;42744;51.094;3.490;2022-12-07T15:58:41;9.53;;;3.37;;
56860;SDS011;42744;51.094;3.490;2022-12-07T16:01:11;5.13;;;2.80;;
56860;SDS011;42744;51.094;3.490;2022-12-07T16:03:38;5.77;;;3.23;;
56860;SDS011;42744;51.094;3.490;2022-12-07T16:06:04;10.10;;;5.97;;
56860;SDS011;42744;51.094;3.490;2022-12-07T16:08:30;13.00;;;7.47;;
56860;SDS011;42744;51.094;3.490;2022-12-07T16:10:56;15.10;;;9.27;;
56860;SDS011;42744;51.094;3.490;2022-12-07T16:13:22;13.57;;;9.70;;
56860;SDS011;42744;51.094;3.490;2022-12-07T16:15:48;17.17;;;9.10;;
56860;SDS011;42744;51.094;3.490;2022-12-07T16:18:14;15.00;;;9.20;;
56860;SDS011;42744;51.094;3.490;2022-12-07T16:20:40;17.07;;;8.40;;
56860;SDS011;42744;51.094;3.490;2022-12-07T16:23:06;11.20;;;7.33;;
56860;SDS011;42744;51.094;3.490;2022-12-07T16:25:32;12.93;;;6.87;;
56860;SDS011;42744;51.094;3.490;2022-12-07T16:27:58;9.50;;;5.40;;
56860;SDS011;42744;51.094;3.490;2022-12-07T16:30:24;13.03;;;5.73;;
56860;SDS011;42744;51.094;3.490;2022-12-07T16:32:51;12.53;;;6.10;;
56860;SDS011;42744;51.094;3.490;2022-12-07T16:35:17;8.63;;;4.73;;
56860;SDS011;42744;51.094;3.490;2022-12-07T16:37:43;8.73;;;4.73;;
56860;SDS011;42744;51.094;3.490;2022-12-07T16:40:09;15.47;;;5.00;;
56860;SDS011;42744;51.094;3.490;2022-12-07T16:42:36;10.63;;;4.97;;
56860;SDS011;42744;51.094;3.490;2022-12-07T16:45:02;9.93;;;5.13;;
56860;SDS011;42744;51.094;3.490;2022-12-07T16:47:29;11.03;;;5.30;;
56860;SDS011;42744;51.094;3.490;2022-12-07T16:49:55;10.13;;;5.27;;
56860;SDS011;42744;51.094;3.490;2022-12-07T16:52:21;13.30;;;5.23;;
56860;SDS011;42744;51.094;3.490;2022-12-07T16:54:48;9.60;;;5.13;;
56860;SDS011;42744;51.094;3.490;2022-12-07T16:57:14;13.80;;;6.30;;
56860;SDS011;42744;51.094;3.490;2022-12-07T16:59:41;11.03;;;5.33;;
56860;SDS011;42744;51.094;3.490;2022-12-07T17:02:09;10.77;;;5.37;;
56860;SDS011;42744;51.094;3.490;2022-12-07T17:04:37;16.20;;;6.70;;
56860;SDS011;42744;51.094;3.490;2022-12-07T17:07:08;22.70;;;8.30;;
56860;SDS011;42744;51.094;3.490;2022-12-07T17:09:35;17.43;;;8.43;;
56860;SDS011;42744;51.094;3.490;2022-12-07T17:12:02;20.97;;;10.47;;
56860;SDS011;42744;51.094;3.490;2022-12-07T17:14:28;20.77;;;10.20;;